createdAt,value
2019-04-16T00:01:23.713Z,9.33
2019-04-16T00:03:55.712Z,9.03
2019-04-16T00:06:39.655Z,9.23
2019-04-16T00:09:14.645Z,9.13
2019-04-16T00:11:49.415Z,9.83
2019-04-16T00:14:21.389Z,10.00
2019-04-16T00:16:51.874Z,8.90
2019-04-16T00:19:22.287Z,9.23
2019-04-16T00:22:12.594Z,9.77
2019-04-16T00:24:45.531Z,9.67
2019-04-16T00:27:16.095Z,9.63
2019-04-16T00:29:46.453Z,9.50
2019-04-16T00:32:18.540Z,10.67
2019-04-16T00:34:48.979Z,10.03
2019-04-16T00:37:21.294Z,10.43
2019-04-16T00:39:55.565Z,9.83
2019-04-16T00:42:23.745Z,9.80
2019-04-16T00:44:54.148Z,11.40
2019-04-16T00:47:24.616Z,10.43
2019-04-16T00:49:57.726Z,10.23
2019-04-16T00:52:27.349Z,10.60
2019-04-16T00:54:57.759Z,10.53
2019-04-16T00:57:28.231Z,10.23
2019-04-16T00:59:58.589Z,10.63
2019-04-16T01:02:29.061Z,10.47
2019-04-16T01:04:59.511Z,10.50
2019-04-16T01:07:30.081Z,10.77
2019-04-16T01:10:00.668Z,10.50
2019-04-16T01:12:31.185Z,10.43
2019-04-16T01:15:01.570Z,9.77
2019-04-16T01:17:33.365Z,10.90
2019-04-16T01:20:11.817Z,11.17
2019-04-16T01:22:40.294Z,10.53
2019-04-16T01:25:11.649Z,11.20
2019-04-16T01:27:43.761Z,11.60
2019-04-16T01:30:15.813Z,11.63
2019-04-16T01:32:57.127Z,11.50
2019-04-16T01:35:29.154Z,12.07
2019-04-16T01:38:16.305Z,12.40
2019-04-16T01:40:51.021Z,11.43
2019-04-16T01:43:25.485Z,11.90
2019-04-16T01:45:53.625Z,12.53
2019-04-16T01:48:24.155Z,13.00
2019-04-16T01:50:54.580Z,12.37
2019-04-16T01:53:25.182Z,11.77
2019-04-16T01:55:56.992Z,12.23
2019-04-16T01:58:27.815Z,13.20
2019-04-16T02:00:58.562Z,12.67
2019-04-16T02:03:29.166Z,11.33
2019-04-16T02:05:59.617Z,13.03
2019-04-16T02:08:31.148Z,12.57
2019-04-16T02:11:02.318Z,12.67
2019-04-16T02:13:32.871Z,13.03
2019-04-16T02:16:03.318Z,13.30
2019-04-16T02:18:33.787Z,13.50
2019-04-16T02:21:04.215Z,12.83
2019-04-16T02:23:34.841Z,13.60
2019-04-16T02:26:06.289Z,13.60
2019-04-16T02:28:36.821Z,13.20
2019-04-16T02:31:13.459Z,12.67
2019-04-16T02:33:39.458Z,12.00
2019-04-16T02:36:09.911Z,12.33
2019-04-16T02:38:46.268Z,12.50
2019-04-16T02:41:12.517Z,13.10
2019-04-16T02:43:43.020Z,12.53
2019-04-16T02:46:13.610Z,13.40
2019-04-16T02:48:49.995Z,13.27
2019-04-16T02:51:39.926Z,13.30
2019-04-16T02:54:09.835Z,12.63
2019-04-16T02:56:41.821Z,13.43
2019-04-16T02:59:19.559Z,14.17
2019-04-16T03:02:06.699Z,12.97
2019-04-16T03:04:58.334Z,14.57
2019-04-16T03:07:28.995Z,14.97
2019-04-16T03:10:01.452Z,15.83
2019-04-16T03:12:31.529Z,14.50
2019-04-16T03:15:02.783Z,15.03
2019-04-16T03:17:34.860Z,15.13
2019-04-16T03:20:08.790Z,15.90
2019-04-16T03:22:39.169Z,16.57
2019-04-16T03:25:13.575Z,16.40
2019-04-16T03:27:43.493Z,15.80
2019-04-16T03:30:14.142Z,17.03
2019-04-16T03:32:51.205Z,17.33
2019-04-16T03:35:25.163Z,17.47
2019-04-16T03:37:53.813Z,18.33
2019-04-16T03:40:25.759Z,18.50
2019-04-16T03:42:59.266Z,17.67
2019-04-16T03:45:28.625Z,19.47
2019-04-16T03:47:59.054Z,18.97
2019-04-16T03:50:31.302Z,18.23
2019-04-16T03:53:01.657Z,17.57
2019-04-16T03:55:32.135Z,15.63
2019-04-16T03:58:05.669Z,14.87
2019-04-16T04:00:34.754Z,14.77
2019-04-16T04:03:05.186Z,16.60
2019-04-16T04:05:35.789Z,16.37
2019-04-16T04:08:06.267Z,16.60
2019-04-16T04:10:37.765Z,14.50
2019-04-16T04:13:08.349Z,15.50
2019-04-16T04:15:38.833Z,15.83
2019-04-16T04:18:11.651Z,15.87
2019-04-16T04:20:41.883Z,14.57
2019-04-16T04:23:12.616Z,15.73
2019-04-16T04:25:43.207Z,15.13
2019-04-16T04:28:18.508Z,14.90
2019-04-16T04:30:48.756Z,16.03
2019-04-16T04:33:41.912Z,15.63
2019-04-16T04:36:11.152Z,15.57
2019-04-16T04:38:43.069Z,16.03
2019-04-16T04:41:13.549Z,15.00
2019-04-16T04:43:44.003Z,15.97
2019-04-16T04:46:15.611Z,16.27
2019-04-16T04:48:46.315Z,17.13
2019-04-16T04:51:16.778Z,19.73
2019-04-16T04:53:49.948Z,23.10
2019-04-16T04:56:20.085Z,23.90
2019-04-16T04:58:50.975Z,22.53
2019-04-16T05:01:21.463Z,19.43
2019-04-16T05:03:53.460Z,18.00
2019-04-16T05:06:40.452Z,18.30
2019-04-16T05:09:10.972Z,18.03
2019-04-16T05:11:41.426Z,18.57
2019-04-16T05:14:11.862Z,18.47
2019-04-16T05:16:42.321Z,18.30
2019-04-16T05:19:14.813Z,19.30
2019-04-16T05:21:49.639Z,17.13
2019-04-16T05:24:17.006Z,18.00
2019-04-16T05:26:47.462Z,17.20
2019-04-16T05:29:18.692Z,16.30
2019-04-16T05:31:49.367Z,17.20
2019-04-16T05:34:19.807Z,17.37
2019-04-16T05:36:50.294Z,15.60
2019-04-16T05:39:20.732Z,16.17
2019-04-16T05:41:52.956Z,15.87
2019-04-16T05:44:23.327Z,15.73
2019-04-16T05:46:53.841Z,15.93
2019-04-16T05:49:25.650Z,17.03
2019-04-16T05:51:56.586Z,16.53
2019-04-16T05:54:37.670Z,17.07
2019-04-16T05:57:18.882Z,15.80
2019-04-16T05:59:49.303Z,14.43
2019-04-16T06:02:24.319Z,15.40
2019-04-16T06:04:55.981Z,16.43
2019-04-16T06:07:27.104Z,16.37
2019-04-16T06:09:57.488Z,15.33
2019-04-16T06:12:32.473Z,15.67
2019-04-16T06:15:07.520Z,16.57
2019-04-16T06:17:52.470Z,13.03
2019-04-16T06:20:24.468Z,12.97
2019-04-16T06:23:00.896Z,13.13
2019-04-16T06:25:41.020Z,12.80
2019-04-16T06:28:22.986Z,12.90
2019-04-16T06:30:58.662Z,13.60
2019-04-16T06:33:39.627Z,14.70
2019-04-16T06:36:11.733Z,17.73
2019-04-16T06:38:46.632Z,16.07
2019-04-16T06:41:41.874Z,17.00
2019-04-16T06:44:08.826Z,22.43
2019-04-16T06:46:43.918Z,26.57
2019-04-16T06:49:21.935Z,31.03
2019-04-16T06:51:59.956Z,30.57
2019-04-16T06:54:33.077Z,34.80
2019-04-16T06:57:26.701Z,25.60
2019-04-16T07:00:14.855Z,32.13
2019-04-16T07:03:01.718Z,30.80
2019-04-16T07:05:23.692Z,24.33
2019-04-16T07:08:04.885Z,25.73
2019-04-16T07:10:44.443Z,26.20
2019-04-16T07:13:11.205Z,21.03
2019-04-16T07:15:41.348Z,18.40
2019-04-16T07:18:11.790Z,18.17
2019-04-16T07:20:45.734Z,20.53
2019-04-16T07:23:14.747Z,21.07
2019-04-16T07:25:45.716Z,20.90
2019-04-16T07:28:38.960Z,19.43
2019-04-16T07:31:25.921Z,20.10
2019-04-16T07:33:51.103Z,19.87
2019-04-16T07:36:35.718Z,20.73
2019-04-16T07:39:28.251Z,19.10
2019-04-16T07:42:11.353Z,18.07
2019-04-16T07:44:51.316Z,17.73
2019-04-16T07:47:35.919Z,17.43
2019-04-16T07:50:14.992Z,17.17
2019-04-16T07:52:47.070Z,17.33
2019-04-16T07:55:33.236Z,19.67
2019-04-16T07:58:05.058Z,16.87
2019-04-16T08:00:40.369Z,16.23
2019-04-16T08:03:07.838Z,18.13
2019-04-16T08:05:41.180Z,15.93
2019-04-16T08:08:10.972Z,17.42
2019-04-16T08:10:41.779Z,12.60
2019-04-16T08:13:16.591Z,13.05
2019-04-16T08:15:48.489Z,12.87
2019-04-16T08:18:19.128Z,13.72
2019-04-16T08:21:01.134Z,12.03
2019-04-16T08:23:26.515Z,11.80
2019-04-16T08:26:03.229Z,11.07
2019-04-16T08:28:31.405Z,14.03
2019-04-16T08:31:03.179Z,13.73
2019-04-16T08:33:35.686Z,15.60
2019-04-16T08:36:07.063Z,12.90
2019-04-16T08:38:38.291Z,12.30
2019-04-16T08:41:12.421Z,9.80
2019-04-16T08:43:42.810Z,10.60
2019-04-16T08:46:14.882Z,11.97
2019-04-16T08:48:49.934Z,9.90
2019-04-16T08:51:30.183Z,10.53
2019-04-16T08:53:55.812Z,11.53
2019-04-16T08:56:27.029Z,10.50
2019-04-16T08:59:01.545Z,11.43
2019-04-16T09:01:35.029Z,11.10
2019-04-16T09:04:06.345Z,10.00
2019-04-16T09:06:37.511Z,10.43
2019-04-16T09:09:24.437Z,9.57
2019-04-16T09:11:55.056Z,12.33
2019-04-16T09:14:27.673Z,11.80
2019-04-16T09:17:00.210Z,9.70
2019-04-16T09:19:31.338Z,9.37
2019-04-16T09:22:02.510Z,9.10
2019-04-16T09:24:41.682Z,7.70
2019-04-16T09:27:28.669Z,9.23
2019-04-16T09:30:17.154Z,7.53
2019-04-16T09:32:49.711Z,6.55
2019-04-16T09:35:32.637Z,6.93
2019-04-16T09:38:13.107Z,7.45
2019-04-16T09:41:11.287Z,6.10
2019-04-16T09:43:53.633Z,6.53
2019-04-16T09:46:49.622Z,6.00
2019-04-16T09:49:04.738Z,5.97
2019-04-16T09:51:51.119Z,7.00
2019-04-16T09:54:44.570Z,6.77
2019-04-16T09:57:24.076Z,7.67
2019-04-16T10:00:04.497Z,6.43
2019-04-16T10:02:37.746Z,10.57
2019-04-16T10:05:10.603Z,25.03
2019-04-16T10:07:44.005Z,11.87
2019-04-16T10:10:16.290Z,20.80
2019-04-16T10:12:50.970Z,9.23
2019-04-16T10:15:25.599Z,7.37
2019-04-16T10:17:58.610Z,7.10
2019-04-16T10:20:31.477Z,6.50
2019-04-16T10:23:12.736Z,5.87
2019-04-16T10:25:47.630Z,6.07
2019-04-16T10:28:26.295Z,6.80
2019-04-16T10:31:00.958Z,7.33
2019-04-16T10:33:32.915Z,8.40
2019-04-16T10:36:10.212Z,8.10
2019-04-16T10:41:38.358Z,5.97
2019-04-16T10:44:11.702Z,4.60
2019-04-16T10:46:47.873Z,4.47
2019-04-16T10:49:37.787Z,5.47
2019-04-16T10:52:18.207Z,4.87
2019-04-16T10:54:55.997Z,5.17
2019-04-16T10:57:47.556Z,5.57
2019-04-16T11:00:43.092Z,4.80
2019-04-16T11:03:21.075Z,4.63
2019-04-16T11:05:56.858Z,4.70
2019-04-16T11:08:25.971Z,4.80
2019-04-16T11:10:58.302Z,4.90
2019-04-16T11:13:32.440Z,4.80
2019-04-16T11:16:07.890Z,6.63
2019-04-16T11:18:38.837Z,6.30
2019-04-16T11:21:10.063Z,9.00
2019-04-16T11:23:40.868Z,11.13
2019-04-16T11:26:12.152Z,11.63
2019-04-16T11:28:44.406Z,14.03
2019-04-16T11:31:17.146Z,15.57
2019-04-16T11:33:48.013Z,14.10
2019-04-16T11:36:21.004Z,19.13
2019-04-16T11:38:53.866Z,14.37
2019-04-16T11:41:24.929Z,14.63
2019-04-16T11:43:55.991Z,16.43
2019-04-16T11:46:27.168Z,17.50
2019-04-16T11:48:58.880Z,16.50
2019-04-16T11:51:30.468Z,27.53
2019-04-16T11:54:01.547Z,15.30
2019-04-16T11:56:32.539Z,13.90
2019-04-16T11:59:10.232Z,12.73
2019-04-16T12:01:50.186Z,14.27
2019-04-16T12:04:46.956Z,14.77
2019-04-16T12:07:25.206Z,13.43
2019-04-16T12:09:58.480Z,14.87
2019-04-16T12:12:40.068Z,14.47
2019-04-16T12:15:15.250Z,16.17
2019-04-16T12:18:00.078Z,13.67
2019-04-16T12:20:47.799Z,16.53
2019-04-16T12:23:27.083Z,8.60
2019-04-16T12:26:10.412Z,9.20
2019-04-16T12:29:00.802Z,9.57
2019-04-16T12:31:33.678Z,8.77
2019-04-16T12:34:15.969Z,14.23
2019-04-16T12:36:51.776Z,14.73
2019-04-16T12:39:28.313Z,24.20
2019-04-16T12:42:07.417Z,20.00
2019-04-16T12:45:03.890Z,15.53
2019-04-16T12:47:41.378Z,22.67
2019-04-16T12:50:23.995Z,22.75
2019-04-16T12:52:58.295Z,12.93
2019-04-16T12:55:34.119Z,11.10
2019-04-16T12:58:13.135Z,8.73
2019-04-16T13:01:04.496Z,11.27
2019-04-16T13:03:38.075Z,10.77
2019-04-16T13:06:10.796Z,12.50
2019-04-16T13:08:53.636Z,9.70
2019-04-16T13:11:58.686Z,12.18
2019-04-16T13:14:37.634Z,11.93
2019-04-16T13:17:26.400Z,12.60
2019-04-16T13:20:14.657Z,12.93
2019-04-16T13:22:59.029Z,11.57
2019-04-16T13:25:43.636Z,10.87
2019-04-16T13:28:14.452Z,10.23
2019-04-16T13:30:45.819Z,10.60
2019-04-16T13:33:16.611Z,10.13
2019-04-16T13:35:56.508Z,15.83
2019-04-16T13:38:40.417Z,11.23
2019-04-16T13:41:10.640Z,11.73
2019-04-16T13:43:42.781Z,10.83
2019-04-16T13:46:15.341Z,9.57
2019-04-16T13:48:52.446Z,10.10
2019-04-16T13:51:31.729Z,10.73
2019-04-16T13:54:17.253Z,10.33
2019-04-16T13:56:51.584Z,12.83
2019-04-16T13:59:33.384Z,10.00
2019-04-16T14:02:06.888Z,12.30
2019-04-16T14:04:37.652Z,14.43
2019-04-16T14:07:08.523Z,17.83
2019-04-16T14:09:39.598Z,17.87
2019-04-16T14:12:12.853Z,15.43
2019-04-16T14:14:46.720Z,15.27
2019-04-16T14:17:18.616Z,11.60
2019-04-16T14:19:54.080Z,12.30
2019-04-16T14:22:24.613Z,11.33
2019-04-16T14:24:55.194Z,10.67
2019-04-16T14:27:25.695Z,11.87
2019-04-16T14:29:59.140Z,11.67
2019-04-16T14:32:28.797Z,11.90
2019-04-16T14:35:00.994Z,11.47
2019-04-16T14:37:31.694Z,12.70
2019-04-16T14:40:07.142Z,14.10
2019-04-16T14:42:37.892Z,12.07
2019-04-16T14:45:13.434Z,10.67
2019-04-16T14:47:44.232Z,10.87
2019-04-16T14:50:15.062Z,13.22
2019-04-16T14:52:45.949Z,12.37
2019-04-16T14:55:20.254Z,16.50
2019-04-16T14:58:11.923Z,18.10
2019-04-16T15:00:53.532Z,16.87
2019-04-16T15:03:43.462Z,14.77
2019-04-16T15:06:19.643Z,12.53
2019-04-16T15:09:08.562Z,11.80
2019-04-16T15:11:49.936Z,13.05
2019-04-16T15:14:35.992Z,12.37
2019-04-16T15:17:11.973Z,12.50
2019-04-16T15:19:42.557Z,12.40
2019-04-16T15:22:24.254Z,10.70
2019-04-16T15:25:14.432Z,10.23
2019-04-16T15:27:49.470Z,10.13
2019-04-16T15:30:28.369Z,9.23
2019-04-16T15:33:12.317Z,9.57
2019-04-16T15:35:46.818Z,9.67
2019-04-16T15:38:20.896Z,9.47
2019-04-16T15:40:53.934Z,10.30
2019-04-16T15:43:42.346Z,10.20
2019-04-16T15:46:26.192Z,11.43
2019-04-16T15:48:54.222Z,10.27
2019-04-16T15:51:44.472Z,9.47
2019-04-16T15:54:34.797Z,9.50
2019-04-16T15:57:23.074Z,9.60
2019-04-16T15:59:55.478Z,9.03
2019-04-16T16:02:30.490Z,12.73
2019-04-16T16:05:08.795Z,12.07
2019-04-16T16:07:40.878Z,10.57
2019-04-16T16:10:14.139Z,27.13
2019-04-16T16:12:44.802Z,11.37
2019-04-16T16:15:15.336Z,11.03
2019-04-16T16:17:45.790Z,9.87
2019-04-16T16:20:17.043Z,10.00
2019-04-16T16:22:47.530Z,9.00
2019-04-16T16:25:18.060Z,9.37
2019-04-16T16:27:48.539Z,10.43
2019-04-16T16:30:19.074Z,11.43
2019-04-16T16:32:49.567Z,12.40
2019-04-16T16:35:20.119Z,13.00
2019-04-16T16:37:50.612Z,13.60
2019-04-16T16:40:21.178Z,13.30
2019-04-16T16:42:52.590Z,11.67
2019-04-16T16:45:24.774Z,12.20
2019-04-16T16:47:55.247Z,11.87
2019-04-16T16:50:25.836Z,10.90
2019-04-16T16:53:03.956Z,15.87
2019-04-16T16:55:36.261Z,124.23
2019-04-16T16:58:08.631Z,164.70
2019-04-16T17:00:50.029Z,141.93
2019-04-16T17:03:22.201Z,46.37
2019-04-16T17:05:52.849Z,27.20
2019-04-16T17:08:23.366Z,28.27
2019-04-16T17:10:54.077Z,30.60
2019-04-16T17:13:24.598Z,28.33
2019-04-16T17:15:55.152Z,28.30
2019-04-16T17:18:25.664Z,29.37
2019-04-16T17:20:56.296Z,26.33
2019-04-16T17:23:26.864Z,30.30
2019-04-16T17:25:58.646Z,26.57
2019-04-16T17:28:29.259Z,25.67
2019-04-16T17:30:59.798Z,21.80
2019-04-16T17:33:30.284Z,21.37
2019-04-16T17:36:00.843Z,22.57
2019-04-16T17:38:33.891Z,22.03
2019-04-16T17:41:05.521Z,24.07
2019-04-16T17:43:38.514Z,24.83
2019-04-16T17:46:19.960Z,24.77
2019-04-16T17:48:58.179Z,23.23
2019-04-16T17:51:30.324Z,22.53
2019-04-16T17:54:05.524Z,21.80
2019-04-16T17:56:55.516Z,24.70
2019-04-16T17:59:33.350Z,28.27
2019-04-16T18:02:14.351Z,29.63
2019-04-16T18:04:55.635Z,29.23
2019-04-16T18:07:33.560Z,30.73
2019-04-16T18:10:26.586Z,30.17
2019-04-16T18:13:00.483Z,37.70
2019-04-16T18:15:42.561Z,40.17
2019-04-16T18:18:16.887Z,38.90
2019-04-16T18:20:58.548Z,35.03
2019-04-16T18:23:27.673Z,33.77
2019-04-16T18:26:15.058Z,33.00
2019-04-16T18:28:56.179Z,34.33
2019-04-16T18:31:34.035Z,42.33
2019-04-16T18:34:12.198Z,41.43
2019-04-16T18:36:47.171Z,39.83
2019-04-16T18:39:24.978Z,35.47
2019-04-16T18:41:56.992Z,31.30
2019-04-16T18:44:46.168Z,29.70
2019-04-16T18:47:24.327Z,29.37
2019-04-16T18:49:56.554Z,30.27
2019-04-16T18:52:27.010Z,21.37
2019-04-16T18:54:57.508Z,20.90
2019-04-16T18:57:27.920Z,17.03
2019-04-16T18:59:58.447Z,17.73
2019-04-16T19:02:30.473Z,14.07
2019-04-16T19:05:00.976Z,15.30
2019-04-16T19:07:31.451Z,15.30
2019-04-16T19:10:01.944Z,13.80
2019-04-16T19:12:32.405Z,15.47
2019-04-16T19:15:03.280Z,14.20
2019-04-16T19:17:33.871Z,14.50
2019-04-16T19:20:05.373Z,14.83
2019-04-16T19:22:35.912Z,15.63
2019-04-16T19:25:09.205Z,15.53
2019-04-16T19:27:38.955Z,14.27
2019-04-16T19:30:09.567Z,17.63
2019-04-16T19:32:40.028Z,17.43
2019-04-16T19:35:14.381Z,16.10
2019-04-16T19:37:42.716Z,15.10
2019-04-16T19:40:15.587Z,15.03
2019-04-16T19:42:45.483Z,14.47
2019-04-16T19:45:17.007Z,15.63
2019-04-16T19:47:47.593Z,15.37
2019-04-16T19:50:18.049Z,15.53
2019-04-16T19:52:48.489Z,14.57
2019-04-16T19:55:18.997Z,14.70
2019-04-16T19:57:49.449Z,16.03
2019-04-16T20:00:22.965Z,13.40
2019-04-16T20:02:52.148Z,15.13
2019-04-16T20:05:22.615Z,16.57
2019-04-16T20:07:53.182Z,18.30
2019-04-16T20:10:23.749Z,18.60
2019-04-16T20:12:57.427Z,22.57
2019-04-16T20:15:26.363Z,24.17
2019-04-16T20:17:57.127Z,15.27
2019-04-16T20:20:27.650Z,15.93
2019-04-16T20:22:59.657Z,17.47
2019-04-16T20:25:30.201Z,13.60
2019-04-16T20:28:00.678Z,12.60
2019-04-16T20:30:31.132Z,13.83
2019-04-16T20:33:01.633Z,11.80
2019-04-16T20:35:32.088Z,11.23
2019-04-16T20:38:04.332Z,10.87
2019-04-16T20:40:34.841Z,9.97
2019-04-16T20:43:05.290Z,9.67
2019-04-16T20:45:36.629Z,10.17
2019-04-16T20:48:09.068Z,10.17
2019-04-16T20:50:39.332Z,10.27
2019-04-16T20:53:09.754Z,10.77
2019-04-16T20:55:40.238Z,11.47
2019-04-16T20:58:10.637Z,10.87
2019-04-16T21:03:23.724Z,10.53
2019-04-16T21:05:59.225Z,10.90
2019-04-16T21:08:26.193Z,10.73
2019-04-16T21:10:58.918Z,12.00
2019-04-16T21:13:28.867Z,11.67
2019-04-16T21:16:01.328Z,11.17
2019-04-16T21:18:31.463Z,12.87
2019-04-16T21:21:01.848Z,14.27
2019-04-16T21:23:34.694Z,15.73
2019-04-16T21:26:04.437Z,17.70
2019-04-16T21:28:42.256Z,14.70
2019-04-16T21:31:17.066Z,15.17
2019-04-16T21:33:52.298Z,18.67
2019-04-16T21:36:37.004Z,19.50
2019-04-16T21:39:17.217Z,20.63
2019-04-16T21:41:44.441Z,20.67
2019-04-16T21:44:14.863Z,20.13
2019-04-16T21:46:46.196Z,19.50
2019-04-16T21:49:16.775Z,20.77
2019-04-16T21:52:05.571Z,18.60
2019-04-16T21:54:38.469Z,15.07
2019-04-16T21:57:13.129Z,15.13
2019-04-16T21:59:41.225Z,16.63
2019-04-16T22:02:13.957Z,16.03
2019-04-16T22:04:45.476Z,17.07
2019-04-16T22:07:16.538Z,21.17
2019-04-16T22:09:47.018Z,21.37
2019-04-16T22:12:17.455Z,21.23
2019-04-16T22:14:50.934Z,19.37
2019-04-16T22:17:20.069Z,19.57
2019-04-16T22:19:54.165Z,20.57
2019-04-16T22:22:22.615Z,21.33
2019-04-16T22:24:54.918Z,21.77
2019-04-16T22:27:25.227Z,22.00
2019-04-16T22:29:55.920Z,20.80
2019-04-16T22:32:26.991Z,19.53
2019-04-16T22:34:58.873Z,17.73
2019-04-16T22:37:29.400Z,16.80
2019-04-16T22:40:01.450Z,16.20
2019-04-16T22:42:33.462Z,14.43
2019-04-16T22:45:19.217Z,14.20
2019-04-16T22:47:52.168Z,14.83
2019-04-16T22:50:22.698Z,14.50
2019-04-16T22:52:53.123Z,13.37
2019-04-16T22:55:24.926Z,12.80
2019-04-16T22:57:55.694Z,13.77
2019-04-16T23:00:30.761Z,13.43
2019-04-16T23:03:01.149Z,12.93
2019-04-16T23:05:32.020Z,12.63
2019-04-16T23:08:02.877Z,14.00
2019-04-16T23:10:33.392Z,17.20
2019-04-16T23:13:03.833Z,21.37
2019-04-16T23:15:34.325Z,23.80
2019-04-16T23:18:04.751Z,25.37
2019-04-16T23:20:36.982Z,26.03
2019-04-16T23:23:07.639Z,27.77
2019-04-16T23:25:38.157Z,27.63
2019-04-16T23:28:10.635Z,28.30
2019-04-16T23:30:41.152Z,28.97
2019-04-16T23:33:11.595Z,27.57
2019-04-16T23:35:44.434Z,32.33
2019-04-16T23:38:14.291Z,32.83
2019-04-16T23:40:44.807Z,33.20
2019-04-16T23:43:25.883Z,34.17
2019-04-16T23:46:14.344Z,33.63
2019-04-16T23:48:47.894Z,34.57
2019-04-16T23:51:20.629Z,36.20
2019-04-16T23:53:52.612Z,33.40
2019-04-16T23:56:33.714Z,34.93
2019-04-16T23:59:17.997Z,35.43
